createdAt,value
2023-02-14T00:00:48.958Z,20.27
2023-02-14T00:03:15.961Z,18.50
2023-02-14T00:05:42.669Z,21.90
2023-02-14T00:08:09.392Z,20.07
2023-02-14T00:10:35.970Z,27.33
2023-02-14T00:13:02.741Z,18.03
2023-02-14T00:15:29.296Z,21.93
2023-02-14T00:17:59.829Z,21.33
2023-02-14T00:20:27.717Z,22.80
2023-02-14T00:22:54.331Z,23.07
2023-02-14T00:25:21.166Z,21.57
2023-02-14T00:27:47.779Z,20.17
2023-02-14T00:30:14.592Z,19.83
2023-02-14T00:32:42.510Z,23.20
2023-02-14T00:35:10.149Z,22.60
2023-02-14T00:37:36.782Z,19.33
2023-02-14T00:40:05.241Z,20.40
2023-02-14T00:42:31.794Z,19.97
2023-02-14T00:44:58.367Z,19.87
2023-02-14T00:47:24.956Z,21.43
2023-02-14T00:49:51.580Z,26.90
2023-02-14T00:52:18.209Z,25.30
2023-02-14T00:54:44.864Z,22.67
2023-02-14T00:57:11.468Z,24.37
2023-02-14T00:59:38.039Z,24.43
2023-02-14T01:02:04.873Z,18.20
2023-02-14T01:04:31.495Z,18.87
2023-02-14T01:06:58.058Z,19.70
2023-02-14T01:09:24.653Z,24.77
2023-02-14T01:11:51.300Z,21.87
2023-02-14T01:14:17.848Z,22.77
2023-02-14T01:16:44.565Z,21.20
2023-02-14T01:19:11.186Z,23.23
2023-02-14T01:21:37.933Z,23.07
2023-02-14T01:24:07.051Z,24.57
2023-02-14T01:26:35.337Z,22.97
2023-02-14T01:29:02.874Z,22.80
2023-02-14T01:31:32.614Z,20.17
2023-02-14T01:33:59.869Z,21.40
2023-02-14T01:36:29.574Z,21.70
2023-02-14T01:38:58.970Z,20.97
2023-02-14T01:41:28.436Z,22.67
2023-02-14T01:43:57.385Z,24.00
2023-02-14T01:46:26.130Z,27.17
2023-02-14T01:48:56.670Z,21.33
2023-02-14T01:51:24.623Z,19.17
2023-02-14T01:53:52.251Z,21.47
2023-02-14T01:56:24.993Z,23.07
2023-02-14T01:58:56.603Z,20.47
2023-02-14T02:01:24.135Z,24.47
2023-02-14T02:03:56.965Z,21.10
2023-02-14T02:06:30.997Z,18.37
2023-02-14T02:09:21.514Z,21.70
2023-02-14T02:11:48.650Z,22.33
2023-02-14T02:14:19.017Z,23.50
2023-02-14T02:17:04.923Z,22.90
2023-02-14T02:20:10.190Z,22.13
2023-02-14T02:23:26.623Z,19.10
2023-02-14T02:25:58.844Z,23.37
2023-02-14T02:28:34.485Z,19.50
2023-02-14T02:31:23.007Z,20.43
2023-02-14T02:34:06.128Z,22.87
2023-02-14T02:36:51.713Z,29.17
2023-02-14T02:39:32.628Z,19.87
2023-02-14T02:42:32.748Z,21.40
2023-02-14T02:45:11.150Z,25.33
2023-02-14T02:47:41.526Z,22.03
2023-02-14T02:50:45.195Z,21.00
2023-02-14T02:53:20.033Z,18.33
2023-02-14T02:56:10.923Z,19.63
2023-02-14T02:58:48.567Z,25.30
2023-02-14T03:01:20.549Z,27.90
2023-02-14T03:04:08.488Z,23.50
2023-02-14T03:06:35.248Z,26.03
2023-02-14T03:09:30.869Z,24.00
2023-02-14T03:12:29.234Z,23.60
2023-02-14T03:15:27.804Z,18.50
2023-02-14T03:18:18.435Z,22.80
2023-02-14T03:21:28.596Z,18.63
2023-02-14T03:24:03.264Z,22.60
2023-02-14T03:26:47.055Z,21.40
2023-02-14T03:29:29.452Z,25.80
2023-02-14T03:32:03.980Z,20.53
2023-02-14T03:34:31.007Z,19.60
2023-02-14T03:37:13.768Z,21.73
2023-02-14T03:39:49.137Z,22.20
2023-02-14T03:42:42.530Z,28.20
2023-02-14T03:45:13.651Z,25.83
2023-02-14T03:47:43.228Z,22.50
2023-02-14T03:50:15.710Z,20.93
2023-02-14T03:52:44.500Z,21.13
2023-02-14T03:55:14.711Z,21.87
2023-02-14T03:58:14.120Z,18.23
2023-02-14T04:00:43.498Z,21.20
2023-02-14T04:03:13.418Z,22.27
2023-02-14T04:05:43.591Z,18.40
2023-02-14T04:08:11.866Z,20.13
2023-02-14T04:10:40.077Z,23.50
2023-02-14T04:13:06.717Z,22.17
2023-02-14T04:15:33.316Z,19.83
2023-02-14T04:18:18.720Z,21.87
2023-02-14T04:20:45.297Z,20.10
2023-02-14T04:23:11.892Z,22.60
2023-02-14T04:25:40.279Z,18.67
2023-02-14T04:28:06.857Z,22.17
2023-02-14T04:30:33.409Z,22.10
2023-02-14T04:32:59.951Z,24.27
2023-02-14T04:35:26.532Z,22.40
2023-02-14T04:37:53.608Z,26.50
2023-02-14T04:40:20.317Z,23.90
2023-02-14T04:42:47.267Z,26.50
2023-02-14T04:45:14.222Z,24.10
2023-02-14T04:47:40.833Z,26.67
2023-02-14T04:50:08.209Z,23.57
2023-02-14T04:52:34.840Z,21.67
2023-02-14T04:55:01.509Z,24.50
2023-02-14T04:57:28.138Z,25.40
2023-02-14T04:59:54.764Z,28.80
2023-02-14T05:02:21.427Z,25.30
2023-02-14T05:04:49.754Z,22.90
2023-02-14T05:07:16.618Z,29.40
2023-02-14T05:09:43.143Z,24.33
2023-02-14T05:12:09.687Z,22.67
2023-02-14T05:14:36.402Z,27.60
2023-02-14T05:17:03.665Z,24.37
2023-02-14T05:19:30.228Z,23.80
2023-02-14T05:21:56.788Z,25.13
2023-02-14T05:24:23.422Z,26.53
2023-02-14T05:26:50.069Z,24.40
2023-02-14T05:29:16.622Z,23.97
2023-02-14T05:31:43.316Z,23.20
2023-02-14T05:34:09.990Z,24.00
2023-02-14T05:36:36.575Z,23.30
2023-02-14T05:39:04.215Z,20.60
2023-02-14T05:41:30.971Z,25.43
2023-02-14T05:43:57.610Z,29.37
2023-02-14T05:46:24.183Z,26.77
2023-02-14T05:48:50.708Z,30.10
2023-02-14T05:51:17.265Z,25.80
2023-02-14T05:53:43.855Z,31.07
2023-02-14T05:56:10.409Z,24.07
2023-02-14T05:58:36.984Z,23.40
2023-02-14T06:01:03.593Z,24.40
2023-02-14T06:03:30.247Z,30.77
2023-02-14T06:05:56.843Z,25.30
2023-02-14T06:08:23.440Z,27.03
2023-02-14T06:10:50.000Z,28.03
2023-02-14T06:13:16.626Z,35.40
2023-02-14T06:15:43.200Z,25.67
2023-02-14T06:18:09.816Z,22.40
2023-02-14T06:20:36.471Z,24.50
2023-02-14T06:23:03.497Z,25.13
2023-02-14T06:25:30.060Z,28.40
2023-02-14T06:27:57.847Z,29.40
2023-02-14T06:30:24.905Z,30.57
2023-02-14T06:32:51.659Z,24.43
2023-02-14T06:35:18.266Z,29.90
2023-02-14T06:37:45.290Z,30.10
2023-02-14T06:40:12.942Z,27.13
2023-02-14T06:42:39.943Z,34.67
2023-02-14T06:45:07.318Z,28.10
2023-02-14T06:47:35.198Z,27.20
2023-02-14T06:50:04.165Z,29.70
2023-02-14T06:52:31.919Z,26.00
2023-02-14T06:54:58.492Z,28.20
2023-02-14T06:57:25.050Z,24.73
2023-02-14T06:59:51.578Z,25.33
2023-02-14T07:02:18.168Z,31.03
2023-02-14T07:04:44.871Z,29.33
2023-02-14T07:07:11.419Z,28.30
2023-02-14T07:09:38.060Z,26.77
2023-02-14T07:12:04.726Z,31.43
2023-02-14T07:14:31.267Z,29.20
2023-02-14T07:16:57.853Z,26.80
2023-02-14T07:19:24.549Z,26.10
2023-02-14T07:21:51.109Z,25.67
2023-02-14T07:24:17.669Z,26.77
2023-02-14T07:26:44.247Z,35.40
2023-02-14T07:29:10.829Z,30.83
2023-02-14T07:31:37.528Z,31.67
2023-02-14T07:34:04.173Z,31.77
2023-02-14T07:36:30.796Z,30.90
2023-02-14T07:38:57.488Z,29.80
2023-02-14T07:41:24.326Z,31.70
2023-02-14T07:43:50.976Z,30.93
2023-02-14T07:46:18.234Z,29.07
2023-02-14T07:48:44.882Z,28.80
2023-02-14T07:51:11.606Z,33.70
2023-02-14T07:53:38.203Z,29.13
2023-02-14T07:56:04.908Z,31.00
2023-02-14T07:58:31.522Z,35.53
2023-02-14T08:00:58.696Z,29.30
2023-02-14T08:03:25.399Z,25.33
2023-02-14T08:05:56.952Z,24.47
2023-02-14T08:08:28.913Z,28.50
2023-02-14T08:10:56.205Z,28.97
2023-02-14T08:13:23.046Z,27.87
2023-02-14T08:16:04.925Z,21.63
2023-02-14T08:18:34.467Z,25.50
2023-02-14T08:21:01.862Z,26.00
2023-02-14T08:23:28.778Z,26.60
2023-02-14T08:25:55.611Z,25.70
2023-02-14T08:28:22.183Z,24.13
2023-02-14T08:30:49.531Z,23.17
2023-02-14T08:33:16.100Z,37.63
2023-02-14T08:35:42.721Z,26.27
2023-02-14T08:38:10.615Z,24.73
2023-02-14T08:40:37.607Z,23.70
2023-02-14T08:43:05.578Z,23.10
2023-02-14T08:45:32.600Z,30.87
2023-02-14T08:48:10.484Z,24.80
2023-02-14T08:50:38.069Z,30.33
2023-02-14T08:53:09.620Z,25.20
2023-02-14T08:55:36.860Z,25.47
2023-02-14T08:58:04.400Z,24.90
2023-02-14T09:00:32.135Z,24.97
2023-02-14T09:02:58.960Z,26.70
2023-02-14T09:05:26.437Z,23.87
2023-02-14T09:07:55.885Z,27.80
2023-02-14T09:10:22.759Z,25.03
2023-02-14T09:12:49.394Z,29.63
2023-02-14T09:15:15.993Z,31.97
2023-02-14T09:17:42.639Z,35.20
2023-02-14T09:20:11.110Z,32.80
2023-02-14T09:22:37.668Z,28.07
2023-02-14T09:25:04.993Z,35.97
2023-02-14T09:27:32.291Z,29.50
2023-02-14T09:29:58.969Z,28.67
2023-02-14T09:32:26.496Z,30.63
2023-02-14T09:34:53.219Z,31.13
2023-02-14T09:37:38.214Z,32.37
2023-02-14T09:40:05.723Z,27.10
2023-02-14T09:42:44.256Z,30.03
2023-02-14T09:45:19.164Z,30.67
2023-02-14T09:47:57.193Z,24.83
2023-02-14T09:50:45.246Z,24.10
2023-02-14T09:53:25.360Z,26.30
2023-02-14T09:55:52.080Z,23.27
2023-02-14T09:58:28.196Z,21.47
2023-02-14T10:01:04.717Z,21.07
2023-02-14T10:03:50.837Z,24.33
2023-02-14T10:06:41.309Z,26.90
2023-02-14T10:09:43.757Z,18.60
2023-02-14T10:12:36.321Z,21.03
2023-02-14T10:15:16.112Z,23.67
2023-02-14T10:17:49.420Z,26.90
2023-02-14T10:20:37.464Z,21.60
2023-02-14T10:23:06.486Z,22.73
2023-02-14T10:25:43.735Z,19.90
2023-02-14T10:28:15.829Z,20.23
2023-02-14T10:30:54.074Z,17.67
2023-02-14T10:33:22.637Z,21.33
2023-02-14T10:36:02.015Z,22.53
2023-02-14T10:38:40.715Z,20.27
2023-02-14T10:41:36.607Z,17.07
2023-02-14T10:44:38.592Z,20.67
2023-02-14T10:47:14.635Z,24.83
2023-02-14T10:49:52.056Z,22.30
2023-02-14T10:52:32.009Z,22.30
2023-02-14T10:55:05.577Z,19.07
2023-02-14T10:57:41.020Z,21.30
2023-02-14T11:00:23.267Z,22.10
2023-02-14T11:02:53.438Z,22.73
2023-02-14T11:05:28.036Z,22.40
2023-02-14T11:07:56.352Z,23.27
2023-02-14T11:10:27.781Z,20.93
2023-02-14T11:12:54.536Z,22.10
2023-02-14T11:15:27.413Z,18.87
2023-02-14T11:18:20.950Z,20.97
2023-02-14T11:21:04.133Z,19.90
2023-02-14T11:23:37.026Z,20.57
2023-02-14T11:26:08.776Z,21.00
2023-02-14T11:28:35.869Z,21.57
2023-02-14T11:31:03.150Z,22.17
2023-02-14T11:33:42.511Z,20.40
2023-02-14T11:36:15.233Z,17.57
2023-02-14T11:38:43.864Z,17.07
2023-02-14T11:41:13.697Z,18.83
2023-02-14T11:43:43.146Z,23.13
2023-02-14T11:47:12.996Z,18.63
2023-02-14T11:49:39.742Z,22.57
2023-02-14T11:52:15.642Z,19.90
2023-02-14T11:54:44.815Z,22.63
2023-02-14T11:57:34.858Z,18.53
2023-02-14T12:00:11.487Z,23.17
2023-02-14T12:02:45.085Z,17.43
2023-02-14T12:05:25.671Z,17.37
2023-02-14T12:08:02.042Z,16.10
2023-02-14T12:10:30.418Z,23.90
2023-02-14T12:13:04.722Z,18.10
2023-02-14T12:15:43.353Z,15.60
2023-02-14T12:18:25.207Z,15.43
2023-02-14T12:21:12.529Z,18.03
2023-02-14T12:23:50.284Z,24.47
2023-02-14T12:26:36.098Z,24.23
2023-02-14T12:29:12.070Z,18.60
2023-02-14T12:31:38.754Z,17.73
2023-02-14T12:34:05.683Z,17.30
2023-02-14T12:37:09.932Z,16.47
2023-02-14T12:40:09.873Z,20.87
2023-02-14T12:42:45.366Z,18.87
2023-02-14T12:45:24.326Z,18.43
2023-02-14T12:48:16.986Z,22.27
2023-02-14T12:51:24.937Z,17.20
2023-02-14T12:54:15.921Z,16.60
2023-02-14T12:56:49.211Z,25.90
2023-02-14T12:59:40.694Z,18.93
2023-02-14T13:02:40.780Z,22.70
2023-02-14T13:05:41.456Z,17.50
2023-02-14T13:08:32.751Z,20.83
2023-02-14T13:11:12.566Z,17.10
2023-02-14T13:14:05.771Z,20.63
2023-02-14T13:16:38.375Z,17.80
2023-02-14T13:19:29.932Z,17.80
2023-02-14T13:21:59.692Z,24.97
2023-02-14T13:24:31.872Z,22.60
2023-02-14T13:27:02.236Z,21.63
2023-02-14T13:29:37.011Z,21.30
2023-02-14T13:32:05.038Z,16.67
2023-02-14T13:34:43.472Z,19.10
2023-02-14T13:37:12.915Z,21.20
2023-02-14T13:39:58.131Z,18.53
2023-02-14T13:42:46.479Z,22.27
2023-02-14T13:45:40.216Z,19.10
2023-02-14T13:48:17.823Z,22.50
2023-02-14T13:50:53.329Z,21.50
2023-02-14T13:53:35.277Z,22.77
2023-02-14T13:56:05.548Z,16.93
2023-02-14T13:58:32.764Z,21.80
2023-02-14T14:01:03.184Z,21.50
2023-02-14T14:03:30.003Z,19.20
2023-02-14T14:06:04.280Z,34.50
2023-02-14T14:08:31.875Z,20.50
2023-02-14T14:11:35.421Z,24.67
2023-02-14T14:14:20.743Z,21.03
2023-02-14T14:16:58.660Z,30.40
2023-02-14T14:19:25.170Z,60.47
2023-02-14T14:22:09.451Z,25.63
2023-02-14T14:24:40.825Z,20.63
2023-02-14T14:27:30.471Z,20.40
2023-02-14T14:30:00.546Z,20.83
2023-02-14T14:32:35.481Z,20.77
2023-02-14T14:35:17.834Z,19.10
2023-02-14T14:37:50.545Z,22.07
2023-02-14T14:40:28.672Z,29.13
2023-02-14T14:43:01.491Z,21.27
2023-02-14T14:45:30.321Z,22.47
2023-02-14T14:47:59.827Z,24.10
2023-02-14T14:50:29.378Z,21.00
2023-02-14T14:53:01.967Z,26.13
2023-02-14T14:55:37.485Z,20.13
2023-02-14T14:58:08.891Z,21.50
2023-02-14T15:00:37.712Z,22.73
2023-02-14T15:03:13.195Z,21.20
2023-02-14T15:05:45.452Z,20.60
2023-02-14T15:08:32.909Z,21.00
2023-02-14T15:11:42.799Z,22.77
2023-02-14T15:14:29.969Z,18.83
2023-02-14T15:16:59.259Z,22.37
2023-02-14T15:19:43.360Z,17.63
2023-02-14T15:22:26.714Z,18.43
2023-02-14T15:24:53.491Z,21.07
2023-02-14T15:27:25.152Z,25.07
2023-02-14T15:30:23.637Z,19.07
2023-02-14T15:32:51.923Z,18.70
2023-02-14T15:35:24.838Z,21.13
2023-02-14T15:37:52.534Z,19.67
2023-02-14T15:40:24.965Z,22.57
2023-02-14T15:42:56.447Z,19.90
2023-02-14T15:45:26.416Z,17.13
2023-02-14T15:48:34.925Z,19.53
2023-02-14T15:51:04.718Z,17.53
2023-02-14T15:53:36.956Z,22.83
2023-02-14T15:56:18.986Z,18.60
2023-02-14T15:58:46.533Z,19.63
2023-02-14T16:01:13.784Z,18.70
2023-02-14T16:03:49.109Z,17.87
2023-02-14T16:06:39.618Z,21.57
2023-02-14T16:09:22.839Z,25.47
2023-02-14T16:11:49.569Z,20.57
2023-02-14T16:14:36.512Z,21.93
2023-02-14T16:17:13.303Z,19.60
2023-02-14T16:19:42.638Z,20.70
2023-02-14T16:22:13.034Z,18.10
2023-02-14T16:24:40.313Z,20.40
2023-02-14T16:27:06.976Z,24.20
2023-02-14T16:29:35.645Z,21.23
2023-02-14T16:32:22.711Z,31.83
2023-02-14T16:34:50.067Z,28.73
2023-02-14T16:37:27.836Z,25.00
2023-02-14T16:39:57.576Z,24.67
2023-02-14T16:42:24.827Z,24.67
2023-02-14T16:44:51.520Z,22.60
2023-02-14T16:47:21.809Z,23.03
2023-02-14T16:49:50.431Z,23.93
2023-02-14T16:52:23.469Z,22.53
2023-02-14T16:54:50.292Z,25.10
2023-02-14T16:57:19.110Z,23.00
2023-02-14T16:59:46.049Z,22.57
2023-02-14T17:02:13.883Z,24.90
2023-02-14T17:04:40.431Z,23.83
2023-02-14T17:07:07.682Z,21.47
2023-02-14T17:09:39.927Z,21.47
2023-02-14T17:12:14.665Z,22.47
2023-02-14T17:14:44.443Z,31.33
2023-02-14T17:17:11.890Z,21.07
2023-02-14T17:19:38.728Z,29.10
2023-02-14T17:22:05.736Z,24.33
2023-02-14T17:24:32.521Z,22.10
2023-02-14T17:26:59.508Z,22.43
2023-02-14T17:29:26.124Z,21.80
2023-02-14T17:31:52.736Z,23.80
2023-02-14T17:34:19.354Z,24.60
2023-02-14T17:36:46.425Z,21.37
2023-02-14T17:39:13.010Z,32.93
2023-02-14T17:41:39.632Z,22.30
2023-02-14T17:44:07.189Z,26.67
2023-02-14T17:46:33.856Z,25.80
2023-02-14T17:49:03.964Z,20.53
2023-02-14T17:51:30.550Z,21.93
2023-02-14T17:53:58.957Z,30.80
2023-02-14T17:56:26.171Z,27.70
2023-02-14T17:58:54.909Z,30.20
2023-02-14T18:01:24.292Z,24.70
2023-02-14T18:03:51.965Z,24.53
2023-02-14T18:06:21.840Z,26.97
2023-02-14T18:08:51.671Z,32.10
2023-02-14T18:11:19.757Z,35.37
2023-02-14T18:13:46.861Z,32.60
2023-02-14T18:16:15.975Z,29.37
2023-02-14T18:18:42.600Z,32.77
2023-02-14T18:21:11.279Z,25.57
2023-02-14T18:23:37.985Z,35.40
2023-02-14T18:26:07.167Z,25.90
2023-02-14T18:28:34.632Z,26.80
2023-02-14T18:31:10.820Z,31.13
2023-02-14T18:33:37.963Z,32.67
2023-02-14T18:36:07.235Z,29.77
2023-02-14T18:38:35.137Z,31.50
2023-02-14T18:41:03.663Z,33.90
2023-02-14T18:43:30.496Z,29.13
2023-02-14T18:46:06.320Z,25.67
2023-02-14T18:48:33.962Z,27.70
2023-02-14T18:51:13.782Z,27.40
2023-02-14T18:53:41.737Z,27.83
2023-02-14T18:56:20.981Z,22.93
2023-02-14T18:58:50.578Z,27.97
2023-02-14T19:01:19.871Z,26.53
2023-02-14T19:03:46.623Z,28.77
2023-02-14T19:06:13.538Z,24.37
2023-02-14T19:08:40.697Z,28.07
2023-02-14T19:11:12.315Z,21.90
2023-02-14T19:13:39.235Z,28.70
2023-02-14T19:16:11.322Z,26.67
2023-02-14T19:18:38.037Z,29.40
2023-02-14T19:21:20.068Z,36.00
2023-02-14T19:23:47.589Z,31.67
2023-02-14T19:26:17.557Z,30.70
2023-02-14T19:28:45.394Z,27.43
2023-02-14T19:31:12.554Z,23.60
2023-02-14T19:33:40.733Z,23.93
2023-02-14T19:36:11.435Z,28.80
2023-02-14T19:38:38.695Z,29.30
2023-02-14T19:41:05.905Z,28.80
2023-02-14T19:43:32.561Z,28.70
2023-02-14T19:45:59.159Z,24.80
2023-02-14T19:48:25.794Z,24.43
2023-02-14T19:50:53.154Z,29.20
2023-02-14T19:53:19.757Z,26.40
2023-02-14T19:55:46.367Z,28.13
2023-02-14T19:58:12.929Z,25.20
2023-02-14T20:00:39.635Z,26.13
2023-02-14T20:03:07.113Z,32.87
2023-02-14T20:05:36.450Z,23.37
2023-02-14T20:08:03.279Z,25.47
2023-02-14T20:10:29.888Z,27.10
2023-02-14T20:12:56.453Z,34.53
2023-02-14T20:15:23.153Z,25.80
2023-02-14T20:17:49.697Z,25.37
2023-02-14T20:20:16.527Z,30.57
2023-02-14T20:22:43.139Z,26.73
2023-02-14T20:25:11.100Z,29.53
2023-02-14T20:27:37.856Z,25.93
2023-02-14T20:30:06.238Z,26.10
2023-02-14T20:32:33.627Z,27.83
2023-02-14T20:35:00.173Z,29.00
2023-02-14T20:37:26.807Z,26.90
2023-02-14T20:39:53.354Z,35.73
2023-02-14T20:42:19.957Z,28.80
2023-02-14T20:44:46.636Z,33.50
2023-02-14T20:47:14.018Z,31.10
2023-02-14T20:49:44.503Z,33.17
2023-02-14T20:52:11.437Z,32.10
2023-02-14T20:54:38.860Z,26.17
2023-02-14T20:57:05.581Z,30.20
2023-02-14T20:59:32.148Z,28.43
2023-02-14T21:01:59.529Z,33.63
2023-02-14T21:04:27.075Z,26.00
2023-02-14T21:06:53.848Z,31.10
2023-02-14T21:09:20.697Z,32.03
2023-02-14T21:11:47.335Z,29.73
2023-02-14T21:14:13.954Z,34.10
2023-02-14T21:16:40.545Z,28.67
2023-02-14T21:19:07.133Z,33.13
2023-02-14T21:21:36.878Z,32.17
2023-02-14T21:24:11.817Z,31.97
2023-02-14T21:26:39.042Z,32.90
2023-02-14T21:29:06.305Z,33.00
2023-02-14T21:31:33.842Z,30.17
2023-02-14T21:34:01.674Z,39.70
2023-02-14T21:36:30.863Z,35.77
2023-02-14T21:38:59.963Z,31.33
2023-02-14T21:41:29.064Z,28.50
2023-02-14T21:43:57.528Z,27.40
2023-02-14T21:46:31.188Z,35.30
2023-02-14T21:49:20.540Z,28.90
2023-02-14T21:51:48.064Z,35.30
2023-02-14T21:54:15.153Z,31.33
2023-02-14T21:56:42.385Z,29.50
2023-02-14T21:59:09.792Z,34.57
2023-02-14T22:01:38.370Z,34.27
2023-02-14T22:04:09.830Z,28.77
2023-02-14T22:06:38.648Z,30.40
2023-02-14T22:09:05.529Z,32.10
2023-02-14T22:11:32.377Z,32.63
2023-02-14T22:14:00.040Z,35.07
2023-02-14T22:16:27.068Z,29.03
2023-02-14T22:18:53.735Z,30.87
2023-02-14T22:21:22.713Z,34.57
2023-02-14T22:23:49.773Z,27.70
2023-02-14T22:26:22.719Z,33.43
2023-02-14T22:28:51.055Z,30.17
2023-02-14T22:31:19.061Z,28.80
2023-02-14T22:33:46.812Z,26.87
2023-02-14T22:36:13.391Z,26.10
2023-02-14T22:38:40.004Z,29.60
2023-02-14T22:41:09.466Z,30.87
2023-02-14T22:43:37.259Z,30.73
2023-02-14T22:46:09.971Z,33.50
2023-02-14T22:48:37.862Z,31.50
2023-02-14T22:51:16.715Z,29.40
2023-02-14T22:53:43.360Z,33.67
2023-02-14T22:56:13.967Z,34.40
2023-02-14T22:58:40.756Z,36.47
2023-02-14T23:01:11.890Z,32.40
2023-02-14T23:03:38.482Z,35.80
2023-02-14T23:06:05.160Z,39.40
2023-02-14T23:08:32.032Z,31.60
2023-02-14T23:11:15.406Z,37.03
2023-02-14T23:14:00.911Z,40.50
2023-02-14T23:16:46.338Z,38.37
2023-02-14T23:19:39.927Z,35.93
2023-02-14T23:22:12.846Z,36.03
2023-02-14T23:24:39.922Z,34.40
2023-02-14T23:27:07.461Z,35.57
2023-02-14T23:29:35.317Z,34.80
2023-02-14T23:32:01.995Z,35.70
2023-02-14T23:34:31.025Z,37.43
2023-02-14T23:36:58.081Z,34.80
2023-02-14T23:39:24.809Z,41.70
2023-02-14T23:41:51.518Z,36.93
2023-02-14T23:44:21.032Z,39.70
2023-02-14T23:46:53.170Z,39.93
2023-02-14T23:49:20.566Z,44.83
2023-02-14T23:51:48.395Z,31.23
2023-02-14T23:54:15.090Z,36.70
2023-02-14T23:56:42.120Z,34.30
2023-02-14T23:59:09.454Z,37.23
